Aktuální počasí v Česku a ve světě - METAR

Seznam meteostanic umístěných nejčasteji na letišti v ČR a ve světě

Vyhledat místa podle abecedy:
A B C D E F G H I J K L M N O P Q R S T U V W X Y Z

Filtrovat:

ID stanice:
a/nebo
Název místa (fulltext):
 
Místo (ID)Naposledy načteno 
Rarotonga I (NCRG) 16.07.2020 12:00 UTC Zobrazit METAR
NCRG 161200Z AUTO 12007KT 080V190 9999 BKN060/// 21/16 Q1017
Reykjavik (BIRK) 16.07.2020 13:00 UTC Zobrazit METAR
BIRK 161300Z 29011KT 9999 FEW010 SCT022 BKN060 13/10 Q0982
Riga (EVRA) 16.07.2020 13:50 UTC Zobrazit METAR
EVRA 161350Z 35009KT CAVOK 22/12 Q1012 NOSIG
Rimini (LIPR) 16.07.2020 13:50 UTC Zobrazit METAR
LIPR 161350Z 04008KT 360V080 9999 FEW040 25/18 Q1013
Riyadh (OERY) 16.07.2020 14:00 UTC Zobrazit METAR
OERY 161400Z 04007KT CAVOK 42/02 Q1001
Road Town (TUPJ) 16.07.2020 14:00 UTC Zobrazit METAR
TUPJ 161400Z 12007KT 10SM SCT019 30/23 A3002 RMK Q1016 VIS16KM
Rodos (LGRP) 16.07.2020 13:50 UTC Zobrazit METAR
LGRP 161350Z 24021KT 9999 FEW018 28/19 Q1005 NOSIG
Rome (LIRF) 16.07.2020 13:50 UTC Zobrazit METAR
LIRF 161350Z 25014KT 9999 FEW020 27/19 Q1013 NOSIG
Roseau (TDCF) 16.07.2020 13:00 UTC Zobrazit METAR
TDCF 161300Z 16003KT 9999 FEW018 29/24 Q1014
Rotterdam (EHRD) 16.07.2020 13:55 UTC Zobrazit METAR
EHRD 161355Z AUTO 32009KT 260V010 9999 BKN016 BKN022 OVC030 18/15 Q1018 TEMPO 7000 -SHRA FEW015TCU
Rzeszow (EPRZ) 16.07.2020 14:00 UTC Zobrazit METAR
EPRZ 161400Z 28012KT 9999 FEW024 20/13 Q1012
Reklama

Počasí na Váš email

Emaily jsou bez reklamy a bez spamu



Odhlásit newsletter



❤️ Podpořte nás

Napište o nás recenzi na Google
Ohodnoťte nás na Firmy.cz

Pošlete nám finanční podporu - firma nedostala žádné dotace ani podporu z Coronaviru, zato letos platíme vyšší daně.
Další české internetové stránky (nejen) o počasí najdete v katalogu TOPlist - weby o počasí nebo vyhledejte na internetu, co jste tu na 🌞 Slunečnu ⛅ zatím nenašli:
⬆️ Posunout nahoru ⬆️
Reklama